Austin, Texas
Traffic Map
Current Weather Conditions
Austin, Texas
Clear
Clear
17°
Feels Like: 17°
Wind Chill: 17° Ceiling: Unl
Heat Index: 17° Visibility: 10mi
Dew Point: 14° Wind: 0mph
Humidity: 81% Direction: ° ()
Pressure: 30.13in Gusts: 0mph
Raw Report DataKATT 240751Z AUTO 00000KT 10SM CLR 17/14 A3013 RMK AO2 SLP195 T01720139
Traffic Incident Summary
Active as of:
Severity:
Category:
InformationThere was an issue retrieving the traffic information for this location. Please try a different location or try again shortly.
Advertisements
Track Severe Weather on mobile